sensor_id;sensor_type;location;lat;lon;timestamp;P1;durP1;ratioP1;P2;durP2;ratioP2
71503;SDS011;59323;50.874;7.028;2023-04-22T00:01:38;10.48;;;4.50;;
71503;SDS011;59323;50.874;7.028;2023-04-22T00:04:04;9.40;;;4.57;;
71503;SDS011;59323;50.874;7.028;2023-04-22T00:06:29;9.07;;;3.83;;
71503;SDS011;59323;50.874;7.028;2023-04-22T00:08:56;11.88;;;4.70;;
71503;SDS011;59323;50.874;7.028;2023-04-22T00:11:21;10.17;;;4.97;;
71503;SDS011;59323;50.874;7.028;2023-04-22T00:13:46;10.07;;;4.05;;
71503;SDS011;59323;50.874;7.028;2023-04-22T00:16:12;9.47;;;4.20;;
71503;SDS011;59323;50.874;7.028;2023-04-22T00:18:37;12.00;;;4.50;;
71503;SDS011;59323;50.874;7.028;2023-04-22T00:21:03;9.30;;;4.10;;
71503;SDS011;59323;50.874;7.028;2023-04-22T00:23:29;8.57;;;3.88;;
71503;SDS011;59323;50.874;7.028;2023-04-22T00:25:54;9.27;;;4.27;;
71503;SDS011;59323;50.874;7.028;2023-04-22T00:28:19;10.18;;;4.30;;
71503;SDS011;59323;50.874;7.028;2023-04-22T00:30:45;10.47;;;4.40;;
71503;SDS011;59323;50.874;7.028;2023-04-22T00:33:10;8.40;;;3.60;;
71503;SDS011;59323;50.874;7.028;2023-04-22T00:35:36;8.77;;;3.70;;
71503;SDS011;59323;50.874;7.028;2023-04-22T00:38:01;9.13;;;4.00;;
71503;SDS011;59323;50.874;7.028;2023-04-22T00:40:26;9.67;;;4.07;;
71503;SDS011;59323;50.874;7.028;2023-04-22T00:42:52;12.00;;;4.97;;
71503;SDS011;59323;50.874;7.028;2023-04-22T00:45:18;9.25;;;4.53;;
71503;SDS011;59323;50.874;7.028;2023-04-22T00:47:45;9.07;;;4.30;;
71503;SDS011;59323;50.874;7.028;2023-04-22T00:50:11;8.63;;;4.13;;
71503;SDS011;59323;50.874;7.028;2023-04-22T00:52:36;9.30;;;4.40;;
71503;SDS011;59323;50.874;7.028;2023-04-22T00:55:01;9.83;;;4.50;;
71503;SDS011;59323;50.874;7.028;2023-04-22T00:57:28;8.95;;;3.85;;
71503;SDS011;59323;50.874;7.028;2023-04-22T00:59:54;10.00;;;4.72;;
71503;SDS011;59323;50.874;7.028;2023-04-22T01:02:20;9.50;;;4.33;;
71503;SDS011;59323;50.874;7.028;2023-04-22T01:04:46;9.70;;;3.97;;
71503;SDS011;59323;50.874;7.028;2023-04-22T01:07:12;9.50;;;3.67;;
71503;SDS011;59323;50.874;7.028;2023-04-22T01:09:37;9.20;;;4.07;;
71503;SDS011;59323;50.874;7.028;2023-04-22T01:12:04;9.45;;;4.28;;
71503;SDS011;59323;50.874;7.028;2023-04-22T01:14:29;12.45;;;4.60;;
71503;SDS011;59323;50.874;7.028;2023-04-22T01:16:55;11.02;;;4.40;;
71503;SDS011;59323;50.874;7.028;2023-04-22T01:19:21;10.97;;;4.17;;
71503;SDS011;59323;50.874;7.028;2023-04-22T01:21:48;10.13;;;4.55;;
71503;SDS011;59323;50.874;7.028;2023-04-22T01:24:15;8.63;;;4.35;;
71503;SDS011;59323;50.874;7.028;2023-04-22T01:26:40;8.83;;;4.03;;
71503;SDS011;59323;50.874;7.028;2023-04-22T01:29:06;9.43;;;3.70;;
71503;SDS011;59323;50.874;7.028;2023-04-22T01:31:31;9.30;;;4.00;;
71503;SDS011;59323;50.874;7.028;2023-04-22T01:33:57;9.68;;;3.70;;
71503;SDS011;59323;50.874;7.028;2023-04-22T01:36:23;7.97;;;3.80;;
71503;SDS011;59323;50.874;7.028;2023-04-22T01:38:49;7.30;;;3.23;;
71503;SDS011;59323;50.874;7.028;2023-04-22T01:41:14;8.32;;;3.42;;
71503;SDS011;59323;50.874;7.028;2023-04-22T01:43:40;8.07;;;3.93;;
71503;SDS011;59323;50.874;7.028;2023-04-22T01:46:07;8.00;;;3.70;;
71503;SDS011;59323;50.874;7.028;2023-04-22T01:48:33;8.85;;;3.67;;
71503;SDS011;59323;50.874;7.028;2023-04-22T01:50:59;8.27;;;3.97;;
71503;SDS011;59323;50.874;7.028;2023-04-22T01:53:25;7.95;;;3.92;;
71503;SDS011;59323;50.874;7.028;2023-04-22T01:55:51;7.87;;;3.50;;
71503;SDS011;59323;50.874;7.028;2023-04-22T01:58:16;8.88;;;3.90;;
71503;SDS011;59323;50.874;7.028;2023-04-22T02:00:42;8.83;;;3.70;;
71503;SDS011;59323;50.874;7.028;2023-04-22T02:03:08;8.18;;;3.65;;
71503;SDS011;59323;50.874;7.028;2023-04-22T02:05:33;8.00;;;3.40;;
71503;SDS011;59323;50.874;7.028;2023-04-22T02:07:59;8.70;;;3.42;;
71503;SDS011;59323;50.874;7.028;2023-04-22T02:10:24;8.83;;;3.63;;
71503;SDS011;59323;50.874;7.028;2023-04-22T02:12:49;7.10;;;3.20;;
71503;SDS011;59323;50.874;7.028;2023-04-22T02:15:15;6.77;;;2.97;;
71503;SDS011;59323;50.874;7.028;2023-04-22T02:17:40;7.23;;;2.83;;
71503;SDS011;59323;50.874;7.028;2023-04-22T02:20:07;8.60;;;3.15;;
71503;SDS011;59323;50.874;7.028;2023-04-22T02:22:36;9.82;;;3.50;;
71503;SDS011;59323;50.874;7.028;2023-04-22T02:25:03;8.05;;;3.40;;
71503;SDS011;59323;50.874;7.028;2023-04-22T02:27:29;9.63;;;3.13;;
71503;SDS011;59323;50.874;7.028;2023-04-22T02:29:54;6.53;;;2.80;;
71503;SDS011;59323;50.874;7.028;2023-04-22T02:32:20;8.23;;;3.00;;
71503;SDS011;59323;50.874;7.028;2023-04-22T02:34:45;7.23;;;2.90;;
71503;SDS011;59323;50.874;7.028;2023-04-22T02:37:12;8.25;;;3.13;;
71503;SDS011;59323;50.874;7.028;2023-04-22T02:39:37;8.20;;;2.83;;
71503;SDS011;59323;50.874;7.028;2023-04-22T02:42:03;7.10;;;2.65;;
71503;SDS011;59323;50.874;7.028;2023-04-22T02:44:28;6.53;;;2.87;;
71503;SDS011;59323;50.874;7.028;2023-04-22T02:46:53;6.20;;;2.60;;
71503;SDS011;59323;50.874;7.028;2023-04-22T02:49:19;7.17;;;2.67;;
71503;SDS011;59323;50.874;7.028;2023-04-22T02:51:45;6.55;;;2.60;;
71503;SDS011;59323;50.874;7.028;2023-04-22T02:54:10;6.80;;;3.00;;
71503;SDS011;59323;50.874;7.028;2023-04-22T02:56:35;6.00;;;2.50;;
71503;SDS011;59323;50.874;7.028;2023-04-22T02:59:01;5.33;;;2.43;;
71503;SDS011;59323;50.874;7.028;2023-04-22T03:01:26;8.05;;;2.65;;
71503;SDS011;59323;50.874;7.028;2023-04-22T03:03:51;6.47;;;2.57;;
71503;SDS011;59323;50.874;7.028;2023-04-22T03:06:17;5.93;;;2.37;;
71503;SDS011;59323;50.874;7.028;2023-04-22T03:08:42;6.13;;;3.07;;
71503;SDS011;59323;50.874;7.028;2023-04-22T03:11:10;7.82;;;3.00;;
71503;SDS011;59323;50.874;7.028;2023-04-22T03:13:37;6.72;;;2.65;;
71503;SDS011;59323;50.874;7.028;2023-04-22T03:16:03;8.23;;;3.53;;
71503;SDS011;59323;50.874;7.028;2023-04-22T03:18:28;6.57;;;2.70;;
71503;SDS011;59323;50.874;7.028;2023-04-22T03:20:54;7.30;;;2.90;;
71503;SDS011;59323;50.874;7.028;2023-04-22T03:23:19;5.40;;;2.23;;
71503;SDS011;59323;50.874;7.028;2023-04-22T03:25:45;5.67;;;2.10;;
71503;SDS011;59323;50.874;7.028;2023-04-22T03:28:10;8.17;;;2.60;;
71503;SDS011;59323;50.874;7.028;2023-04-22T03:30:35;6.68;;;2.67;;
71503;SDS011;59323;50.874;7.028;2023-04-22T03:33:01;7.67;;;2.83;;
71503;SDS011;59323;50.874;7.028;2023-04-22T03:35:26;7.40;;;3.13;;
71503;SDS011;59323;50.874;7.028;2023-04-22T03:37:51;6.50;;;3.00;;
71503;SDS011;59323;50.874;7.028;2023-04-22T03:40:19;6.20;;;3.03;;
71503;SDS011;59323;50.874;7.028;2023-04-22T03:42:44;6.90;;;3.08;;
71503;SDS011;59323;50.874;7.028;2023-04-22T03:45:10;8.73;;;2.70;;
71503;SDS011;59323;50.874;7.028;2023-04-22T03:47:35;6.57;;;2.80;;
71503;SDS011;59323;50.874;7.028;2023-04-22T03:50:01;6.27;;;2.77;;
71503;SDS011;59323;50.874;7.028;2023-04-22T03:52:28;7.57;;;2.92;;
71503;SDS011;59323;50.874;7.028;2023-04-22T03:54:53;7.53;;;2.83;;
71503;SDS011;59323;50.874;7.028;2023-04-22T03:57:18;8.57;;;2.80;;
71503;SDS011;59323;50.874;7.028;2023-04-22T03:59:44;7.27;;;2.90;;
71503;SDS011;59323;50.874;7.028;2023-04-22T04:02:09;7.63;;;2.80;;
71503;SDS011;59323;50.874;7.028;2023-04-22T04:04:35;7.33;;;3.07;;
71503;SDS011;59323;50.874;7.028;2023-04-22T04:07:00;7.43;;;2.58;;
71503;SDS011;59323;50.874;7.028;2023-04-22T04:09:26;8.97;;;2.87;;
71503;SDS011;59323;50.874;7.028;2023-04-22T04:11:51;7.85;;;3.30;;
71503;SDS011;59323;50.874;7.028;2023-04-22T04:14:17;6.37;;;2.60;;
71503;SDS011;59323;50.874;7.028;2023-04-22T04:16:42;6.77;;;3.13;;
71503;SDS011;59323;50.874;7.028;2023-04-22T04:19:08;7.13;;;3.08;;
71503;SDS011;59323;50.874;7.028;2023-04-22T04:21:34;6.70;;;2.83;;
71503;SDS011;59323;50.874;7.028;2023-04-22T04:23:59;7.70;;;3.00;;
71503;SDS011;59323;50.874;7.028;2023-04-22T04:26:24;7.60;;;3.28;;
71503;SDS011;59323;50.874;7.028;2023-04-22T04:28:51;7.20;;;2.93;;
71503;SDS011;59323;50.874;7.028;2023-04-22T04:31:17;7.28;;;2.92;;
71503;SDS011;59323;50.874;7.028;2023-04-22T04:33:43;7.20;;;3.25;;
71503;SDS011;59323;50.874;7.028;2023-04-22T04:36:08;7.60;;;3.47;;
71503;SDS011;59323;50.874;7.028;2023-04-22T04:38:39;8.05;;;3.35;;
71503;SDS011;59323;50.874;7.028;2023-04-22T04:41:04;7.10;;;2.93;;
71503;SDS011;59323;50.874;7.028;2023-04-22T04:43:32;6.50;;;2.72;;
71503;SDS011;59323;50.874;7.028;2023-04-22T04:45:57;6.80;;;3.03;;
71503;SDS011;59323;50.874;7.028;2023-04-22T04:48:23;6.78;;;3.13;;
71503;SDS011;59323;50.874;7.028;2023-04-22T04:50:52;8.45;;;3.15;;
71503;SDS011;59323;50.874;7.028;2023-04-22T04:53:17;6.60;;;3.13;;
71503;SDS011;59323;50.874;7.028;2023-04-22T04:55:44;7.68;;;2.67;;
71503;SDS011;59323;50.874;7.028;2023-04-22T04:58:09;5.93;;;2.40;;
71503;SDS011;59323;50.874;7.028;2023-04-22T05:00:35;8.93;;;3.20;;
71503;SDS011;59323;50.874;7.028;2023-04-22T05:03:00;6.28;;;2.63;;
71503;SDS011;59323;50.874;7.028;2023-04-22T05:05:25;6.73;;;2.73;;
71503;SDS011;59323;50.874;7.028;2023-04-22T05:07:51;6.40;;;2.70;;
71503;SDS011;59323;50.874;7.028;2023-04-22T05:10:17;5.63;;;2.40;;
71503;SDS011;59323;50.874;7.028;2023-04-22T05:12:43;8.13;;;3.10;;
71503;SDS011;59323;50.874;7.028;2023-04-22T05:15:10;7.80;;;2.90;;
71503;SDS011;59323;50.874;7.028;2023-04-22T05:17:35;6.80;;;2.73;;
71503;SDS011;59323;50.874;7.028;2023-04-22T05:20:01;6.13;;;2.87;;
71503;SDS011;59323;50.874;7.028;2023-04-22T05:22:27;6.45;;;2.33;;
71503;SDS011;59323;50.874;7.028;2023-04-22T05:24:52;6.83;;;2.43;;
71503;SDS011;59323;50.874;7.028;2023-04-22T05:27:18;7.22;;;2.47;;
71503;SDS011;59323;50.874;7.028;2023-04-22T05:29:43;6.50;;;2.53;;
71503;SDS011;59323;50.874;7.028;2023-04-22T05:32:09;5.97;;;2.47;;
71503;SDS011;59323;50.874;7.028;2023-04-22T05:34:34;7.20;;;2.90;;
71503;SDS011;59323;50.874;7.028;2023-04-22T05:37:01;6.78;;;2.75;;
71503;SDS011;59323;50.874;7.028;2023-04-22T05:39:27;6.40;;;3.00;;
71503;SDS011;59323;50.874;7.028;2023-04-22T05:41:53;5.80;;;2.10;;
71503;SDS011;59323;50.874;7.028;2023-04-22T05:44:18;9.03;;;2.57;;
71503;SDS011;59323;50.874;7.028;2023-04-22T05:46:44;6.35;;;2.70;;
71503;SDS011;59323;50.874;7.028;2023-04-22T05:49:09;5.87;;;2.20;;
71503;SDS011;59323;50.874;7.028;2023-04-22T05:51:35;6.17;;;2.50;;
71503;SDS011;59323;50.874;7.028;2023-04-22T05:54:00;6.53;;;2.80;;
71503;SDS011;59323;50.874;7.028;2023-04-22T05:56:25;7.40;;;2.57;;
71503;SDS011;59323;50.874;7.028;2023-04-22T05:58:51;8.15;;;2.40;;
71503;SDS011;59323;50.874;7.028;2023-04-22T06:01:16;7.07;;;2.50;;
71503;SDS011;59323;50.874;7.028;2023-04-22T06:03:41;6.27;;;2.60;;
71503;SDS011;59323;50.874;7.028;2023-04-22T06:06:07;5.00;;;2.00;;
71503;SDS011;59323;50.874;7.028;2023-04-22T06:08:32;5.57;;;2.13;;
71503;SDS011;59323;50.874;7.028;2023-04-22T06:10:58;6.50;;;2.23;;
71503;SDS011;59323;50.874;7.028;2023-04-22T06:13:23;5.73;;;2.07;;
71503;SDS011;59323;50.874;7.028;2023-04-22T06:15:49;5.43;;;2.17;;
71503;SDS011;59323;50.874;7.028;2023-04-22T06:18:17;5.93;;;2.50;;
71503;SDS011;59323;50.874;7.028;2023-04-22T06:20:42;6.40;;;2.83;;
71503;SDS011;59323;50.874;7.028;2023-04-22T06:23:08;5.83;;;2.27;;
71503;SDS011;59323;50.874;7.028;2023-04-22T06:25:33;5.10;;;1.80;;
71503;SDS011;59323;50.874;7.028;2023-04-22T06:27:59;5.38;;;1.88;;
71503;SDS011;59323;50.874;7.028;2023-04-22T06:30:25;5.33;;;2.43;;
71503;SDS011;59323;50.874;7.028;2023-04-22T06:32:51;6.38;;;2.30;;
71503;SDS011;59323;50.874;7.028;2023-04-22T06:35:16;8.02;;;2.50;;
71503;SDS011;59323;50.874;7.028;2023-04-22T06:37:42;4.50;;;1.90;;
71503;SDS011;59323;50.874;7.028;2023-04-22T06:40:08;5.97;;;2.50;;
71503;SDS011;59323;50.874;7.028;2023-04-22T06:42:34;5.05;;;2.00;;
71503;SDS011;59323;50.874;7.028;2023-04-22T06:45:00;4.77;;;2.00;;
71503;SDS011;59323;50.874;7.028;2023-04-22T06:47:25;5.77;;;2.03;;
71503;SDS011;59323;50.874;7.028;2023-04-22T06:49:50;9.33;;;2.60;;
71503;SDS011;59323;50.874;7.028;2023-04-22T06:52:16;5.47;;;2.38;;
71503;SDS011;59323;50.874;7.028;2023-04-22T06:54:42;4.97;;;1.97;;
71503;SDS011;59323;50.874;7.028;2023-04-22T06:57:07;5.83;;;2.17;;
71503;SDS011;59323;50.874;7.028;2023-04-22T06:59:32;7.22;;;2.55;;
71503;SDS011;59323;50.874;7.028;2023-04-22T07:01:58;5.20;;;2.03;;
71503;SDS011;59323;50.874;7.028;2023-04-22T07:04:23;5.90;;;2.47;;
71503;SDS011;59323;50.874;7.028;2023-04-22T07:06:51;5.87;;;2.20;;
71503;SDS011;59323;50.874;7.028;2023-04-22T07:09:17;5.00;;;2.20;;
71503;SDS011;59323;50.874;7.028;2023-04-22T07:11:42;6.77;;;2.40;;
71503;SDS011;59323;50.874;7.028;2023-04-22T07:14:11;5.97;;;2.50;;
71503;SDS011;59323;50.874;7.028;2023-04-22T07:16:37;5.70;;;1.80;;
71503;SDS011;59323;50.874;7.028;2023-04-22T07:19:03;5.00;;;2.63;;
71503;SDS011;59323;50.874;7.028;2023-04-22T07:21:30;4.68;;;2.00;;
71503;SDS011;59323;50.874;7.028;2023-04-22T07:23:56;6.25;;;2.33;;
71503;SDS011;59323;50.874;7.028;2023-04-22T07:26:22;5.33;;;2.20;;
71503;SDS011;59323;50.874;7.028;2023-04-22T07:28:47;5.03;;;2.20;;
71503;SDS011;59323;50.874;7.028;2023-04-22T07:31:13;5.87;;;2.50;;
71503;SDS011;59323;50.874;7.028;2023-04-22T07:33:38;4.80;;;1.83;;
71503;SDS011;59323;50.874;7.028;2023-04-22T07:36:04;5.82;;;1.92;;
71503;SDS011;59323;50.874;7.028;2023-04-22T07:38:30;5.03;;;1.85;;
71503;SDS011;59323;50.874;7.028;2023-04-22T07:40:56;4.00;;;1.73;;
71503;SDS011;59323;50.874;7.028;2023-04-22T07:43:21;5.70;;;2.83;;
71503;SDS011;59323;50.874;7.028;2023-04-22T07:45:46;5.30;;;1.75;;
71503;SDS011;59323;50.874;7.028;2023-04-22T07:48:12;4.83;;;2.37;;
71503;SDS011;59323;50.874;7.028;2023-04-22T07:50:38;5.30;;;2.23;;
71503;SDS011;59323;50.874;7.028;2023-04-22T07:53:03;7.07;;;2.03;;
71503;SDS011;59323;50.874;7.028;2023-04-22T07:55:29;5.70;;;2.30;;
71503;SDS011;59323;50.874;7.028;2023-04-22T07:57:55;9.57;;;2.13;;
71503;SDS011;59323;50.874;7.028;2023-04-22T08:00:20;3.40;;;1.80;;
71503;SDS011;59323;50.874;7.028;2023-04-22T08:02:46;5.00;;;2.00;;
71503;SDS011;59323;50.874;7.028;2023-04-22T08:05:11;4.97;;;2.25;;
71503;SDS011;59323;50.874;7.028;2023-04-22T08:07:36;5.17;;;2.20;;
71503;SDS011;59323;50.874;7.028;2023-04-22T08:10:02;4.17;;;2.00;;
71503;SDS011;59323;50.874;7.028;2023-04-22T08:12:28;4.45;;;2.22;;
71503;SDS011;59323;50.874;7.028;2023-04-22T08:14:53;4.53;;;2.00;;
71503;SDS011;59323;50.874;7.028;2023-04-22T08:17:19;4.85;;;2.00;;
71503;SDS011;59323;50.874;7.028;2023-04-22T08:19:46;3.70;;;1.97;;
71503;SDS011;59323;50.874;7.028;2023-04-22T08:22:12;3.95;;;1.77;;
71503;SDS011;59323;50.874;7.028;2023-04-22T08:24:38;4.78;;;2.03;;
71503;SDS011;59323;50.874;7.028;2023-04-22T08:27:03;4.83;;;2.03;;
71503;SDS011;59323;50.874;7.028;2023-04-22T08:29:29;5.53;;;1.80;;
71503;SDS011;59323;50.874;7.028;2023-04-22T08:31:54;4.50;;;2.23;;
71503;SDS011;59323;50.874;7.028;2023-04-22T08:34:20;4.28;;;1.90;;
71503;SDS011;59323;50.874;7.028;2023-04-22T08:36:45;4.43;;;1.97;;
71503;SDS011;59323;50.874;7.028;2023-04-22T08:39:11;8.23;;;2.77;;
71503;SDS011;59323;50.874;7.028;2023-04-22T08:41:37;4.93;;;1.98;;
71503;SDS011;59323;50.874;7.028;2023-04-22T08:44:03;4.50;;;2.40;;
71503;SDS011;59323;50.874;7.028;2023-04-22T08:46:29;6.13;;;2.22;;
71503;SDS011;59323;50.874;7.028;2023-04-22T08:48:55;6.10;;;2.15;;
71503;SDS011;59323;50.874;7.028;2023-04-22T08:51:27;5.80;;;2.00;;
71503;SDS011;59323;50.874;7.028;2023-04-22T08:53:52;4.05;;;1.80;;
71503;SDS011;59323;50.874;7.028;2023-04-22T08:56:18;4.40;;;1.83;;
71503;SDS011;59323;50.874;7.028;2023-04-22T08:58:44;4.57;;;1.92;;
71503;SDS011;59323;50.874;7.028;2023-04-22T09:01:10;4.83;;;1.90;;
71503;SDS011;59323;50.874;7.028;2023-04-22T09:03:40;4.00;;;1.80;;
71503;SDS011;59323;50.874;7.028;2023-04-22T09:06:06;3.30;;;1.88;;
71503;SDS011;59323;50.874;7.028;2023-04-22T09:08:32;3.80;;;1.90;;
71503;SDS011;59323;50.874;7.028;2023-04-22T09:10:57;6.13;;;2.30;;
71503;SDS011;59323;50.874;7.028;2023-04-22T09:13:24;5.15;;;2.30;;
71503;SDS011;59323;50.874;7.028;2023-04-22T09:15:50;4.20;;;2.07;;
71503;SDS011;59323;50.874;7.028;2023-04-22T09:18:16;3.90;;;1.73;;
71503;SDS011;59323;50.874;7.028;2023-04-22T09:20:43;5.07;;;2.20;;
71503;SDS011;59323;50.874;7.028;2023-04-22T09:23:10;3.13;;;2.00;;
71503;SDS011;59323;50.874;7.028;2023-04-22T09:25:39;6.25;;;1.90;;
71503;SDS011;59323;50.874;7.028;2023-04-22T09:28:05;3.90;;;1.98;;
71503;SDS011;59323;50.874;7.028;2023-04-22T09:30:36;3.88;;;1.60;;
71503;SDS011;59323;50.874;7.028;2023-04-22T09:33:02;5.57;;;2.20;;
71503;SDS011;59323;50.874;7.028;2023-04-22T09:38:00;7.80;;;1.70;;
71503;SDS011;59323;50.874;7.028;2023-04-22T09:40:31;4.00;;;2.10;;
71503;SDS011;59323;50.874;7.028;2023-04-22T09:42:57;5.15;;;2.20;;
71503;SDS011;59323;50.874;7.028;2023-04-22T09:45:31;4.75;;;2.40;;
71503;SDS011;59323;50.874;7.028;2023-04-22T09:50:42;3.92;;;1.92;;
71503;SDS011;59323;50.874;7.028;2023-04-22T09:53:10;6.27;;;2.40;;
71503;SDS011;59323;50.874;7.028;2023-04-22T09:55:39;6.68;;;2.10;;
71503;SDS011;59323;50.874;7.028;2023-04-22T09:58:06;5.18;;;1.83;;
71503;SDS011;59323;50.874;7.028;2023-04-22T10:00:34;3.42;;;1.70;;
71503;SDS011;59323;50.874;7.028;2023-04-22T10:03:04;4.15;;;1.90;;
71503;SDS011;59323;50.874;7.028;2023-04-22T10:05:30;4.50;;;2.43;;
71503;SDS011;59323;50.874;7.028;2023-04-22T10:07:55;6.27;;;2.53;;
71503;SDS011;59323;50.874;7.028;2023-04-22T10:10:21;6.50;;;2.00;;
71503;SDS011;59323;50.874;7.028;2023-04-22T10:12:46;4.00;;;1.83;;
71503;SDS011;59323;50.874;7.028;2023-04-22T10:15:13;3.88;;;2.20;;
71503;SDS011;59323;50.874;7.028;2023-04-22T10:17:38;5.63;;;2.60;;
71503;SDS011;59323;50.874;7.028;2023-04-22T10:20:06;4.72;;;2.22;;
71503;SDS011;59323;50.874;7.028;2023-04-22T10:22:37;4.40;;;2.13;;
71503;SDS011;59323;50.874;7.028;2023-04-22T10:25:04;6.88;;;2.35;;
71503;SDS011;59323;50.874;7.028;2023-04-22T10:27:30;3.50;;;2.43;;
71503;SDS011;59323;50.874;7.028;2023-04-22T10:29:55;5.32;;;2.08;;
71503;SDS011;59323;50.874;7.028;2023-04-22T10:34:47;3.42;;;1.67;;
71503;SDS011;59323;50.874;7.028;2023-04-22T10:37:13;3.30;;;1.70;;
71503;SDS011;59323;50.874;7.028;2023-04-22T10:39:42;5.60;;;1.80;;
71503;SDS011;59323;50.874;7.028;2023-04-22T10:42:37;3.88;;;2.17;;
71503;SDS011;59323;50.874;7.028;2023-04-22T10:45:03;4.40;;;1.90;;
71503;SDS011;59323;50.874;7.028;2023-04-22T10:47:31;4.40;;;2.13;;
71503;SDS011;59323;50.874;7.028;2023-04-22T10:50:13;5.40;;;1.97;;
71503;SDS011;59323;50.874;7.028;2023-04-22T10:52:42;4.93;;;1.85;;
71503;SDS011;59323;50.874;7.028;2023-04-22T10:55:10;6.78;;;2.25;;
71503;SDS011;59323;50.874;7.028;2023-04-22T10:57:36;4.67;;;2.10;;
71503;SDS011;59323;50.874;7.028;2023-04-22T11:02:47;3.30;;;1.73;;
71503;SDS011;59323;50.874;7.028;2023-04-22T11:05:25;4.95;;;1.92;;
71503;SDS011;59323;50.874;7.028;2023-04-22T11:07:52;3.70;;;2.10;;
71503;SDS011;59323;50.874;7.028;2023-04-22T11:10:36;4.33;;;2.10;;
71503;SDS011;59323;50.874;7.028;2023-04-22T11:13:04;5.00;;;1.77;;
71503;SDS011;59323;50.874;7.028;2023-04-22T11:15:31;4.63;;;2.45;;
71503;SDS011;59323;50.874;7.028;2023-04-22T11:17:59;4.57;;;1.95;;
71503;SDS011;59323;50.874;7.028;2023-04-22T11:20:24;4.90;;;2.20;;
71503;SDS011;59323;50.874;7.028;2023-04-22T11:22:54;6.13;;;1.90;;
71503;SDS011;59323;50.874;7.028;2023-04-22T11:25:20;4.03;;;1.80;;
71503;SDS011;59323;50.874;7.028;2023-04-22T11:27:47;4.57;;;2.30;;
71503;SDS011;59323;50.874;7.028;2023-04-22T11:30:13;7.28;;;2.30;;
71503;SDS011;59323;50.874;7.028;2023-04-22T11:32:41;6.90;;;2.08;;
71503;SDS011;59323;50.874;7.028;2023-04-22T11:35:09;6.00;;;2.10;;
71503;SDS011;59323;50.874;7.028;2023-04-22T11:37:39;4.67;;;1.83;;
71503;SDS011;59323;50.874;7.028;2023-04-22T11:40:11;5.63;;;1.60;;
71503;SDS011;59323;50.874;7.028;2023-04-22T11:42:38;4.68;;;2.20;;
71503;SDS011;59323;50.874;7.028;2023-04-22T11:45:04;4.10;;;1.83;;
71503;SDS011;59323;50.874;7.028;2023-04-22T11:47:31;4.80;;;2.58;;
71503;SDS011;59323;50.874;7.028;2023-04-22T11:49:58;5.27;;;2.00;;
71503;SDS011;59323;50.874;7.028;2023-04-22T11:55:12;4.35;;;1.98;;
71503;SDS011;59323;50.874;7.028;2023-04-22T11:57:38;4.65;;;2.72;;
71503;SDS011;59323;50.874;7.028;2023-04-22T12:00:05;4.30;;;1.90;;
71503;SDS011;59323;50.874;7.028;2023-04-22T12:02:31;6.43;;;2.20;;
71503;SDS011;59323;50.874;7.028;2023-04-22T12:04:57;4.68;;;2.03;;
71503;SDS011;59323;50.874;7.028;2023-04-22T12:07:25;6.03;;;2.70;;
71503;SDS011;59323;50.874;7.028;2023-04-22T12:09:54;4.53;;;2.60;;
71503;SDS011;59323;50.874;7.028;2023-04-22T12:12:24;6.63;;;2.70;;
71503;SDS011;59323;50.874;7.028;2023-04-22T12:14:49;7.22;;;2.58;;
71503;SDS011;59323;50.874;7.028;2023-04-22T12:17:15;7.00;;;2.70;;
71503;SDS011;59323;50.874;7.028;2023-04-22T12:19:46;5.55;;;2.80;;
71503;SDS011;59323;50.874;7.028;2023-04-22T12:22:12;6.10;;;2.90;;
71503;SDS011;59323;50.874;7.028;2023-04-22T12:24:47;6.13;;;2.83;;
71503;SDS011;59323;50.874;7.028;2023-04-22T12:27:12;4.33;;;1.73;;
71503;SDS011;59323;50.874;7.028;2023-04-22T12:29:37;8.13;;;2.20;;
71503;SDS011;59323;50.874;7.028;2023-04-22T12:32:15;8.73;;;3.00;;
71503;SDS011;59323;50.874;7.028;2023-04-22T12:34:40;4.23;;;2.23;;
71503;SDS011;59323;50.874;7.028;2023-04-22T12:37:06;4.70;;;2.07;;
71503;SDS011;59323;50.874;7.028;2023-04-22T12:39:31;3.73;;;2.13;;
71503;SDS011;59323;50.874;7.028;2023-04-22T12:41:56;4.70;;;1.90;;
71503;SDS011;59323;50.874;7.028;2023-04-22T12:44:22;5.57;;;2.00;;
71503;SDS011;59323;50.874;7.028;2023-04-22T12:46:47;5.93;;;2.33;;
71503;SDS011;59323;50.874;7.028;2023-04-22T12:49:13;5.67;;;2.10;;
71503;SDS011;59323;50.874;7.028;2023-04-22T12:51:38;4.35;;;2.15;;
71503;SDS011;59323;50.874;7.028;2023-04-22T12:54:04;8.00;;;2.37;;
71503;SDS011;59323;50.874;7.028;2023-04-22T12:56:29;6.10;;;2.33;;
71503;SDS011;59323;50.874;7.028;2023-04-22T12:58:55;6.37;;;2.30;;
71503;SDS011;59323;50.874;7.028;2023-04-22T13:01:21;5.53;;;2.30;;
71503;SDS011;59323;50.874;7.028;2023-04-22T13:03:46;4.50;;;1.93;;
71503;SDS011;59323;50.874;7.028;2023-04-22T13:06:16;5.30;;;2.30;;
71503;SDS011;59323;50.874;7.028;2023-04-22T13:08:42;5.03;;;2.00;;
71503;SDS011;59323;50.874;7.028;2023-04-22T13:11:07;6.23;;;2.17;;
71503;SDS011;59323;50.874;7.028;2023-04-22T13:13:32;6.83;;;1.97;;
71503;SDS011;59323;50.874;7.028;2023-04-22T13:15:58;5.43;;;2.00;;
71503;SDS011;59323;50.874;7.028;2023-04-22T13:18:23;5.60;;;2.07;;
71503;SDS011;59323;50.874;7.028;2023-04-22T13:20:48;5.35;;;1.98;;
71503;SDS011;59323;50.874;7.028;2023-04-22T13:23:15;4.77;;;1.40;;
71503;SDS011;59323;50.874;7.028;2023-04-22T13:25:41;6.95;;;1.80;;
71503;SDS011;59323;50.874;7.028;2023-04-22T13:28:06;3.38;;;1.83;;
71503;SDS011;59323;50.874;7.028;2023-04-22T13:30:32;3.47;;;1.87;;
71503;SDS011;59323;50.874;7.028;2023-04-22T13:32:57;4.37;;;2.20;;
71503;SDS011;59323;50.874;7.028;2023-04-22T13:35:22;4.70;;;1.50;;
71503;SDS011;59323;50.874;7.028;2023-04-22T13:37:48;3.65;;;1.70;;
71503;SDS011;59323;50.874;7.028;2023-04-22T13:40:14;3.77;;;1.73;;
71503;SDS011;59323;50.874;7.028;2023-04-22T13:42:39;3.80;;;1.95;;
71503;SDS011;59323;50.874;7.028;2023-04-22T13:45:05;4.40;;;2.13;;
71503;SDS011;59323;50.874;7.028;2023-04-22T13:47:31;3.47;;;2.05;;
71503;SDS011;59323;50.874;7.028;2023-04-22T13:49:56;4.23;;;1.50;;
71503;SDS011;59323;50.874;7.028;2023-04-22T13:52:22;4.10;;;1.97;;
71503;SDS011;59323;50.874;7.028;2023-04-22T13:54:47;6.30;;;1.60;;
71503;SDS011;59323;50.874;7.028;2023-04-22T13:57:12;3.60;;;1.70;;
71503;SDS011;59323;50.874;7.028;2023-04-22T13:59:39;3.47;;;1.40;;
71503;SDS011;59323;50.874;7.028;2023-04-22T14:02:05;3.42;;;1.73;;
71503;SDS011;59323;50.874;7.028;2023-04-22T14:04:31;4.80;;;1.67;;
71503;SDS011;59323;50.874;7.028;2023-04-22T14:06:57;3.72;;;1.80;;
71503;SDS011;59323;50.874;7.028;2023-04-22T14:09:22;5.67;;;2.17;;
71503;SDS011;59323;50.874;7.028;2023-04-22T14:11:47;4.70;;;2.23;;
71503;SDS011;59323;50.874;7.028;2023-04-22T14:14:13;6.43;;;1.83;;
71503;SDS011;59323;50.874;7.028;2023-04-22T14:16:38;4.00;;;1.60;;
71503;SDS011;59323;50.874;7.028;2023-04-22T14:19:03;5.03;;;1.77;;
71503;SDS011;59323;50.874;7.028;2023-04-22T14:21:30;3.37;;;1.50;;
71503;SDS011;59323;50.874;7.028;2023-04-22T14:23:55;4.55;;;1.73;;
71503;SDS011;59323;50.874;7.028;2023-04-22T14:26:21;3.63;;;1.80;;
71503;SDS011;59323;50.874;7.028;2023-04-22T14:28:46;5.40;;;2.23;;
71503;SDS011;59323;50.874;7.028;2023-04-22T14:31:11;3.85;;;1.80;;
71503;SDS011;59323;50.874;7.028;2023-04-22T14:33:39;2.87;;;1.47;;
71503;SDS011;59323;50.874;7.028;2023-04-22T14:36:05;5.88;;;1.98;;
71503;SDS011;59323;50.874;7.028;2023-04-22T14:38:30;5.43;;;2.30;;
71503;SDS011;59323;50.874;7.028;2023-04-22T14:40:56;4.83;;;1.93;;
71503;SDS011;59323;50.874;7.028;2023-04-22T14:43:21;3.60;;;2.03;;
71503;SDS011;59323;50.874;7.028;2023-04-22T14:45:47;3.63;;;2.05;;
71503;SDS011;59323;50.874;7.028;2023-04-22T14:48:12;3.43;;;1.63;;
71503;SDS011;59323;50.874;7.028;2023-04-22T14:50:38;5.93;;;2.30;;
71503;SDS011;59323;50.874;7.028;2023-04-22T14:53:03;5.57;;;1.77;;
71503;SDS011;59323;50.874;7.028;2023-04-22T14:55:29;3.08;;;1.25;;